Seaven Joy — SVCQ8 — position and weather

sailwx.info

Track history (hours):
 
Tides and Currents Weather Stations Pressure Air Temp Water Temp Dewpoint Dewpoint Depression Visibility Wind Speed Wind Dir Waves Ship Positions

Seaven Joy

Last reported at 2017-Nov-18 22:24 UTC. Time now 2017-Nov-23 10:58 UTC.
Position N 40°45' W 009°57'.

Length 100 m; draft 5.9 m.

Type: Ship. MMSI: 241523000.

Date/timePositionNaut miles runAvg speedWind from/ knotsBaromVisibWave heightAir tempDewpointWater temp
2017-Nov-18 22:24N 40°45' W 009°57'19 9.7
2017-Nov-18 20:24N 40°25' W 009°57'4 9.7
2017-Nov-18 20:00N 40°21' W 009°57'9 9.5
2017-Nov-18 19:04N 40°13' W 009°57'2 9.7
2017-Nov-18 18:54N 40°11' W 009°57'510.0
2017-Nov-18 18:27N 40°06' W 009°57'4 9.9
2017-Nov-18 18:00N 40°02' W 009°57'5 9.9
2017-Nov-18 17:30N 39°57' W 009°57'510.0
2017-Nov-18 16:59N 39°52' W 009°56'3210.0
2017-Nov-18 13:45N 39°19' W 009°56'210.0
2017-Nov-18 13:30N 39°17' W 009°56'510.7
2017-Nov-18 13:00N 39°12' W 009°57'610.4
2017-Nov-18 12:26N 39°06' W 009°57'410.1
2017-Nov-18 12:00N 39°01' W 009°57'510.4
2017-Nov-18 11:30N 38°56' W 009°56'510.5
2017-Nov-18 11:00N 38°51' W 009°57'510.2
2017-Nov-18 10:30N 38°46' W 009°57'5 9.9
2017-Nov-18 10:00N 38°41' W 009°57'5 9.9
2017-Nov-18 09:30N 38°36' W 009°55'5 9.8
2017-Nov-18 09:00N 38°31' W 009°54'5 9.9
2017-Nov-18 08:30N 38°27' W 009°52'5 9.5
2017-Nov-18 08:00N 38°22' W 009°51'5 9.8
2017-Nov-18 07:30N 38°17' W 009°49'5 9.9
2017-Nov-18 07:00N 38°12' W 009°48'5 9.9
2017-Nov-18 06:30N 38°07' W 009°47'510.0
2017-Nov-18 05:59N 38°02' W 009°45'510.1
2017-Nov-18 05:30N 37°58' W 009°44'510.2
2017-Nov-18 05:00N 37°53' W 009°42'510.3
2017-Nov-18 04:30N 37°48' W 009°41'910.2
2017-Nov-18 03:38N 37°39' W 009°38'210.5
2017-Nov-18 03:28N 37°37' W 009°38'810.6
2017-Nov-18 02:40N 37°29' W 009°35'210.7
2017-Nov-18 02:28N 37°27' W 009°34'510.5
2017-Nov-18 02:00N 37°22' W 009°33'510.5
2017-Nov-18 01:30N 37°17' W 009°32'510.2
2017-Nov-18 01:00N 37°12' W 009°30'510.1
2017-Nov-18 00:30N 37°07' W 009°29'510.1
2017-Nov-18 00:00N 37°02' W 009°27'510.0
2017-Nov-17 23:30N 36°58' W 009°26'10 9.6
2017-Nov-17 22:30N 36°49' W 009°21'510.5
2017-Nov-17 21:59N 36°45' W 009°16'510.4
2017-Nov-17 21:31N 36°41' W 009°12'610.5
2017-Nov-17 20:56N 36°40' W 009°05'17310.5
2017-Nov-17 04:28N 35°58' W 005°36'4 7.9
2017-Nov-17 04:00N 35°59' W 005°32'4 9.0
2017-Nov-17 03:30N 36°00' W 005°26'5 9.3
2017-Nov-17 03:00N 36°02' W 005°21'5 9.5
2017-Nov-17 02:30N 36°05' W 005°17'4 9.0
2017-Nov-17 02:00N 36°07' W 005°12'  
2017-Nov-12 12:50N 36°19' E 013°50'410.3
2017-Nov-12 12:30N 36°17' E 013°54'510.6
2017-Nov-12 12:00N 36°15' E 013°59'510.7
2017-Nov-12 11:30N 36°12' E 014°05'510.9
2017-Nov-12 11:00N 36°09' E 014°11'511.0
2017-Nov-12 10:30N 36°07' E 014°17'510.8
2017-Nov-12 10:00N 36°04' E 014°23'510.7
2017-Nov-12 09:30N 36°01' E 014°28'4 8.4
2017-Nov-12 09:00N 35°59' E 014°33'2 3.3
2017-Nov-12 08:30N 35°58' E 014°35'1 1.5
2017-Nov-12 08:00N 35°57' E 014°35'3 6.4
2017-Nov-12 07:30N 35°56' E 014°38'4 8.2
2017-Nov-12 07:00N 35°53' E 014°41'4 7.9
2017-Nov-12 06:30N 35°49' E 014°41'12 7.5
2017-Nov-12 04:51N 35°45' E 014°26'3 8.3
2017-Nov-12 04:30N 35°46' E 014°23'4 8.2
2017-Nov-12 04:00N 35°49' E 014°20'4 8.9
2017-Nov-12 03:30N 35°53' E 014°17'4 8.7
2017-Nov-12 03:00N 35°57' E 014°19'1 1.0
2017-Nov-12 02:30N 35°57' E 014°20'0 0.0
2017-Nov-12 01:59N 35°57' E 014°20'0 0.0
2017-Nov-12 01:26N 35°57' E 014°20'0 0.1
2017-Nov-12 00:59N 35°57' E 014°20'0 0.0
2017-Nov-12 00:29N 35°57' E 014°20'0 0.0
2017-Nov-11 23:59N 35°57' E 014°20'0 0.0
2017-Nov-11 23:29N 35°57' E 014°20'0 0.0
2017-Nov-11 22:59N 35°57' E 014°20'0 0.0
2017-Nov-11 22:26N 35°57' E 014°20'0 0.0
2017-Nov-11 21:56N 35°57' E 014°20'0 0.0
2017-Nov-11 21:29N 35°57' E 014°20'0 0.1
2017-Nov-11 20:59N 35°57' E 014°20'0 0.0
2017-Nov-11 20:29N 35°57' E 014°20'0 0.1
2017-Nov-11 19:59N 35°57' E 014°20'0 0.1
2017-Nov-11 19:26N 35°57' E 014°20'1 2.8
2017-Nov-11 19:00N 35°57' E 014°18'3 5.1
2017-Nov-11 18:30N 35°54' E 014°17'5 9.9
2017-Nov-11 18:00N 35°50' E 014°18'510.5
2017-Nov-11 17:30N 35°46' E 014°23'1810.1
2017-Nov-11 15:43N 35°49' E 014°44'3 7.0
2017-Nov-11 15:19N 35°52' E 014°46'0 0.1
2017-Nov-11 14:23N 35°52' E 014°45'0 0.0
2017-Nov-11 12:44N 35°52' E 014°46'0 0.0
2017-Nov-11 11:56N 35°52' E 014°46'0 0.3
2017-Nov-11 11:30N 35°52' E 014°46'3 5.2
2017-Nov-11 10:59N 35°53' E 014°43'4 9.3
2017-Nov-11 10:30N 35°56' E 014°38'4 8.2
2017-Nov-11 10:01N 35°58' E 014°34'1 1.9
2017-Nov-11 09:30N 35°57' E 014°35'1 1.3
2017-Nov-11 08:59N 35°57' E 014°35'2 3.2
2017-Nov-11 08:30N 35°56' E 014°37'  
Track history (hours):
 
Tides and Currents Weather Stations Pressure Air Temp Water Temp Dewpoint Dewpoint Depression Visibility Wind Speed Wind Dir Waves Ship Positions

Seaven Joy

Last reported at 2017-Nov-18 22:24 UTC. Time now 2017-Nov-23 10:58 UTC.
Position N 40°45' W 009°57'.

Length 100 m; draft 5.9 m.

Type: Ship. MMSI: 241523000.

Date/timePositionNaut miles runAvg speedWind from/ knotsBaromVisibWave heightAir tempDewpointWater temp
2017-Nov-18 22:24N 40°45' W 009°57'19 9.7
2017-Nov-18 20:24N 40°25' W 009°57'4 9.7
2017-Nov-18 20:00N 40°21' W 009°57'9 9.5
2017-Nov-18 19:04N 40°13' W 009°57'2 9.7
2017-Nov-18 18:54N 40°11' W 009°57'510.0
2017-Nov-18 18:27N 40°06' W 009°57'4 9.9
2017-Nov-18 18:00N 40°02' W 009°57'5 9.9
2017-Nov-18 17:30N 39°57' W 009°57'510.0
2017-Nov-18 16:59N 39°52' W 009°56'3210.0
2017-Nov-18 13:45N 39°19' W 009°56'210.0
2017-Nov-18 13:30N 39°17' W 009°56'510.7
2017-Nov-18 13:00N 39°12' W 009°57'610.4
2017-Nov-18 12:26N 39°06' W 009°57'410.1
2017-Nov-18 12:00N 39°01' W 009°57'510.4
2017-Nov-18 11:30N 38°56' W 009°56'510.5
2017-Nov-18 11:00N 38°51' W 009°57'510.2
2017-Nov-18 10:30N 38°46' W 009°57'5 9.9
2017-Nov-18 10:00N 38°41' W 009°57'5 9.9
2017-Nov-18 09:30N 38°36' W 009°55'5 9.8
2017-Nov-18 09:00N 38°31' W 009°54'5 9.9
2017-Nov-18 08:30N 38°27' W 009°52'5 9.5
2017-Nov-18 08:00N 38°22' W 009°51'5 9.8
2017-Nov-18 07:30N 38°17' W 009°49'5 9.9
2017-Nov-18 07:00N 38°12' W 009°48'5 9.9
2017-Nov-18 06:30N 38°07' W 009°47'510.0
2017-Nov-18 05:59N 38°02' W 009°45'510.1
2017-Nov-18 05:30N 37°58' W 009°44'510.2
2017-Nov-18 05:00N 37°53' W 009°42'510.3
2017-Nov-18 04:30N 37°48' W 009°41'910.2
2017-Nov-18 03:38N 37°39' W 009°38'210.5
2017-Nov-18 03:28N 37°37' W 009°38'810.6
2017-Nov-18 02:40N 37°29' W 009°35'210.7
2017-Nov-18 02:28N 37°27' W 009°34'510.5
2017-Nov-18 02:00N 37°22' W 009°33'510.5
2017-Nov-18 01:30N 37°17' W 009°32'510.2
2017-Nov-18 01:00N 37°12' W 009°30'510.1
2017-Nov-18 00:30N 37°07' W 009°29'510.1
2017-Nov-18 00:00N 37°02' W 009°27'510.0
2017-Nov-17 23:30N 36°58' W 009°26'10 9.6
2017-Nov-17 22:30N 36°49' W 009°21'510.5
2017-Nov-17 21:59N 36°45' W 009°16'510.4
2017-Nov-17 21:31N 36°41' W 009°12'610.5
2017-Nov-17 20:56N 36°40' W 009°05'17310.5
2017-Nov-17 04:28N 35°58' W 005°36'4 7.9
2017-Nov-17 04:00N 35°59' W 005°32'4 9.0
2017-Nov-17 03:30N 36°00' W 005°26'5 9.3
2017-Nov-17 03:00N 36°02' W 005°21'5 9.5
2017-Nov-17 02:30N 36°05' W 005°17'4 9.0
2017-Nov-17 02:00N 36°07' W 005°12'  
2017-Nov-12 12:50N 36°19' E 013°50'410.3
2017-Nov-12 12:30N 36°17' E 013°54'510.6
2017-Nov-12 12:00N 36°15' E 013°59'510.7
2017-Nov-12 11:30N 36°12' E 014°05'510.9
2017-Nov-12 11:00N 36°09' E 014°11'511.0
2017-Nov-12 10:30N 36°07' E 014°17'510.8
2017-Nov-12 10:00N 36°04' E 014°23'510.7
2017-Nov-12 09:30N 36°01' E 014°28'4 8.4
2017-Nov-12 09:00N 35°59' E 014°33'2 3.3
2017-Nov-12 08:30N 35°58' E 014°35'1 1.5
2017-Nov-12 08:00N 35°57' E 014°35'3 6.4
2017-Nov-12 07:30N 35°56' E 014°38'4 8.2
2017-Nov-12 07:00N 35°53' E 014°41'4 7.9
2017-Nov-12 06:30N 35°49' E 014°41'12 7.5
2017-Nov-12 04:51N 35°45' E 014°26'3 8.3
2017-Nov-12 04:30N 35°46' E 014°23'4 8.2
2017-Nov-12 04:00N 35°49' E 014°20'4 8.9
2017-Nov-12 03:30N 35°53' E 014°17'4 8.7
2017-Nov-12 03:00N 35°57' E 014°19'1 1.0
2017-Nov-12 02:30N 35°57' E 014°20'0 0.0
2017-Nov-12 01:59N 35°57' E 014°20'0 0.0
2017-Nov-12 01:26N 35°57' E 014°20'0 0.1
2017-Nov-12 00:59N 35°57' E 014°20'0 0.0
2017-Nov-12 00:29N 35°57' E 014°20'0 0.0
2017-Nov-11 23:59N 35°57' E 014°20'0 0.0
2017-Nov-11 23:29N 35°57' E 014°20'0 0.0
2017-Nov-11 22:59N 35°57' E 014°20'0 0.0
2017-Nov-11 22:26N 35°57' E 014°20'0 0.0
2017-Nov-11 21:56N 35°57' E 014°20'0 0.0
2017-Nov-11 21:29N 35°57' E 014°20'0 0.1
2017-Nov-11 20:59N 35°57' E 014°20'0 0.0
2017-Nov-11 20:29N 35°57' E 014°20'0 0.1
2017-Nov-11 19:59N 35°57' E 014°20'0 0.1
2017-Nov-11 19:26N 35°57' E 014°20'1 2.8
2017-Nov-11 19:00N 35°57' E 014°18'3 5.1
2017-Nov-11 18:30N 35°54' E 014°17'5 9.9
2017-Nov-11 18:00N 35°50' E 014°18'510.5
2017-Nov-11 17:30N 35°46' E 014°23'1810.1
2017-Nov-11 15:43N 35°49' E 014°44'3 7.0
2017-Nov-11 15:19N 35°52' E 014°46'0 0.1
2017-Nov-11 14:23N 35°52' E 014°45'0 0.0
2017-Nov-11 12:44N 35°52' E 014°46'0 0.0
2017-Nov-11 11:56N 35°52' E 014°46'0 0.3
2017-Nov-11 11:30N 35°52' E 014°46'3 5.2
2017-Nov-11 10:59N 35°53' E 014°43'4 9.3
2017-Nov-11 10:30N 35°56' E 014°38'4 8.2
2017-Nov-11 10:01N 35°58' E 014°34'1 1.9
2017-Nov-11 09:30N 35°57' E 014°35'1 1.3
2017-Nov-11 08:59N 35°57' E 014°35'2 3.2
2017-Nov-11 08:30N 35°56' E 014°37'  

Dump ship's entire track history